Glenburnie, Maryland
Current Conditions -  °F | °C
As of 7:54 PM on Tuesday 27 Jan 2015 (Local Time) from KBWI Reporting Station
Scattered Clouds Scattered Clouds  
Wind Chill: 18°   Ceiling: Unl
Heat Index: 29°   Visibility: 10mi
Dew Point: 18°   Wind: 15mph
Humidity: 64%   Direction: 290°WNW
Pressure: 29.86"   Gusts: 22mph
Location:  39.1648°N, 76.6418°W
Report Text: KBWI 280054Z 29013G19KT 10SM FEW160 SCT250 M02/M08 A2986 RMK AO2 SLP113 T10171078
Loading
Personal Weather Stations






























Interactive Weather Map New forecast layout! Learn more

10-Day Weather Forecast

Advertisements
Track Severe Weather on mobile